sensor_id;sensor_type;location;lat;lon;timestamp;pressure;altitude;pressure_sealevel;temperature;humidity
72110;BME280;59983;52.010;5.420;2022-08-11T00:01:59;102330.06;;;20.87;52.28
72110;BME280;59983;52.010;5.420;2022-08-11T00:04:27;102335.41;;;20.73;52.61
72110;BME280;59983;52.010;5.420;2022-08-11T00:07:03;102332.97;;;20.64;52.57
72110;BME280;59983;52.010;5.420;2022-08-11T00:09:34;102329.31;;;20.57;53.05
72110;BME280;59983;52.010;5.420;2022-08-11T00:12:12;102329.69;;;20.52;52.76
72110;BME280;59983;52.010;5.420;2022-08-11T00:14:40;102331.06;;;20.38;53.12
72110;BME280;59983;52.010;5.420;2022-08-11T00:17:10;102325.16;;;20.40;53.57
72110;BME280;59983;52.010;5.420;2022-08-11T00:19:39;102329.09;;;20.39;53.60
72110;BME280;59983;52.010;5.420;2022-08-11T00:22:31;102337.75;;;20.37;53.52
72110;BME280;59983;52.010;5.420;2022-08-11T00:24:59;102338.41;;;20.27;53.73
72110;BME280;59983;52.010;5.420;2022-08-11T00:27:35;102333.38;;;20.33;53.72
72110;BME280;59983;52.010;5.420;2022-08-11T00:30:07;102332.09;;;20.27;53.89
72110;BME280;59983;52.010;5.420;2022-08-11T00:32:36;102324.16;;;20.22;54.06
72110;BME280;59983;52.010;5.420;2022-08-11T00:35:04;102325.28;;;20.17;54.00
72110;BME280;59983;52.010;5.420;2022-08-11T00:37:54;102329.22;;;20.16;54.03
72110;BME280;59983;52.010;5.420;2022-08-11T00:40:30;102337.03;;;20.14;53.82
72110;BME280;59983;52.010;5.420;2022-08-11T00:45:41;102337.03;;;20.14;54.11
72110;BME280;59983;52.010;5.420;2022-08-11T00:48:35;102340.28;;;20.20;54.12
72110;BME280;59983;52.010;5.420;2022-08-11T01:00:18;102338.50;;;20.04;54.64
72110;BME280;59983;52.010;5.420;2022-08-11T01:10:47;102347.50;;;19.71;56.22
72110;BME280;59983;52.010;5.420;2022-08-11T01:13:33;102341.28;;;19.78;56.20
72110;BME280;59983;52.010;5.420;2022-08-11T01:22:01;102337.75;;;19.55;56.99
72110;BME280;59983;52.010;5.420;2022-08-11T01:36:38;102324.41;;;19.30;57.98
72110;BME280;59983;52.010;5.420;2022-08-11T01:50:37;102333.06;;;19.32;58.02
72110;BME280;59983;52.010;5.420;2022-08-11T01:53:20;102336.56;;;19.29;58.29
72110;BME280;59983;52.010;5.420;2022-08-11T01:55:52;102334.50;;;19.22;58.42
72110;BME280;59983;52.010;5.420;2022-08-11T01:58:42;102329.72;;;19.19;58.48
72110;BME280;59983;52.010;5.420;2022-08-11T02:03:47;102330.56;;;19.23;58.69
72110;BME280;59983;52.010;5.420;2022-08-11T02:06:38;102333.31;;;19.23;58.61
72110;BME280;59983;52.010;5.420;2022-08-11T02:15:41;102328.63;;;19.24;58.52
72110;BME280;59983;52.010;5.420;2022-08-11T02:18:23;102324.84;;;19.09;59.33
72110;BME280;59983;52.010;5.420;2022-08-11T02:21:19;102327.94;;;19.08;59.75
72110;BME280;59983;52.010;5.420;2022-08-11T02:24:16;102322.88;;;19.10;59.91
72110;BME280;59983;52.010;5.420;2022-08-11T02:26:51;102320.97;;;19.14;59.83
72110;BME280;59983;52.010;5.420;2022-08-11T02:29:28;102318.22;;;19.14;59.96
72110;BME280;59983;52.010;5.420;2022-08-11T02:32:33;102322.44;;;19.08;59.84
72110;BME280;59983;52.010;5.420;2022-08-11T02:35:27;102318.84;;;19.04;60.19
72110;BME280;59983;52.010;5.420;2022-08-11T02:38:19;102315.03;;;18.89;60.38
72110;BME280;59983;52.010;5.420;2022-08-11T02:41:04;102323.09;;;18.78;61.11
72110;BME280;59983;52.010;5.420;2022-08-11T02:47:02;102324.22;;;18.74;61.83
72110;BME280;59983;52.010;5.420;2022-08-11T02:58:35;102316.88;;;18.62;62.46
72110;BME280;59983;52.010;5.420;2022-08-11T03:01:27;102327.38;;;18.56;62.46
72110;BME280;59983;52.010;5.420;2022-08-11T03:04:07;102313.69;;;18.60;62.62
72110;BME280;59983;52.010;5.420;2022-08-11T03:07:00;102315.94;;;18.54;62.70
72110;BME280;59983;52.010;5.420;2022-08-11T03:13:03;102321.31;;;18.47;63.18
72110;BME280;59983;52.010;5.420;2022-08-11T03:16:18;102320.97;;;18.29;63.62
72110;BME280;59983;52.010;5.420;2022-08-11T03:19:28;102319.56;;;18.20;64.25
72110;BME280;59983;52.010;5.420;2022-08-11T03:22:10;102317.53;;;18.17;64.47
72110;BME280;59983;52.010;5.420;2022-08-11T03:25:24;102314.66;;;18.09;64.53
72110;BME280;59983;52.010;5.420;2022-08-11T03:28:03;102310.41;;;18.12;65.03
72110;BME280;59983;52.010;5.420;2022-08-11T03:41:44;102324.03;;;18.08;65.25
72110;BME280;59983;52.010;5.420;2022-08-11T03:47:14;102318.38;;;18.01;65.68
72110;BME280;59983;52.010;5.420;2022-08-11T03:52:50;102312.50;;;17.83;66.51
72110;BME280;59983;52.010;5.420;2022-08-11T03:55:29;102322.88;;;17.90;66.69
72110;BME280;59983;52.010;5.420;2022-08-11T03:58:27;102316.06;;;17.84;66.45
72110;BME280;59983;52.010;5.420;2022-08-11T04:01:32;102321.91;;;17.82;66.80
72110;BME280;59983;52.010;5.420;2022-08-11T04:27:21;102308.22;;;17.51;68.50
72110;BME280;59983;52.010;5.420;2022-08-11T04:33:22;102298.47;;;17.53;68.04
72110;BME280;59983;52.010;5.420;2022-08-11T04:36:34;102288.91;;;17.63;67.91
72110;BME280;59983;52.010;5.420;2022-08-11T05:04:35;102300.88;;;17.55;68.87
72110;BME280;59983;52.010;5.420;2022-08-11T05:07:46;102302.19;;;17.61;69.01
72110;BME280;59983;52.010;5.420;2022-08-11T05:13:09;102303.84;;;17.81;68.60
72110;BME280;59983;52.010;5.420;2022-08-11T05:16:02;102299.09;;;17.78;68.83
72110;BME280;59983;52.010;5.420;2022-08-11T05:18:54;102305.00;;;17.80;68.96
72110;BME280;59983;52.010;5.420;2022-08-11T05:21:46;102303.22;;;17.88;68.71
72110;BME280;59983;52.010;5.420;2022-08-11T05:24:40;102302.91;;;17.93;68.66
72110;BME280;59983;52.010;5.420;2022-08-11T05:27:34;102295.72;;;18.04;68.16
72110;BME280;59983;52.010;5.420;2022-08-11T05:30:28;102309.94;;;18.10;68.12
72110;BME280;59983;52.010;5.420;2022-08-11T05:33:21;102303.03;;;18.16;67.98
72110;BME280;59983;52.010;5.420;2022-08-11T05:36:26;102309.81;;;18.22;67.70
72110;BME280;59983;52.010;5.420;2022-08-11T05:39:12;102314.31;;;18.30;67.55
72110;BME280;59983;52.010;5.420;2022-08-11T05:42:04;102313.00;;;18.44;67.47
72110;BME280;59983;52.010;5.420;2022-08-11T05:45:03;102314.72;;;18.52;67.28
72110;BME280;59983;52.010;5.420;2022-08-11T05:48:13;102308.94;;;18.57;67.01
72110;BME280;59983;52.010;5.420;2022-08-11T05:51:00;102307.94;;;18.65;67.07
72110;BME280;59983;52.010;5.420;2022-08-11T05:53:57;102323.47;;;18.77;67.12
72110;BME280;59983;52.010;5.420;2022-08-11T05:56:58;102316.56;;;18.86;66.45
72110;BME280;59983;52.010;5.420;2022-08-11T05:59:27;102313.59;;;18.95;66.23
72110;BME280;59983;52.010;5.420;2022-08-11T06:02:02;102323.97;;;19.05;66.34
72110;BME280;59983;52.010;5.420;2022-08-11T06:04:30;102319.81;;;19.15;66.06
72110;BME280;59983;52.010;5.420;2022-08-11T06:07:01;102319.94;;;19.22;65.96
72110;BME280;59983;52.010;5.420;2022-08-11T06:09:33;102320.34;;;19.24;65.69
72110;BME280;59983;52.010;5.420;2022-08-11T06:12:03;102320.09;;;19.33;65.35
72110;BME280;59983;52.010;5.420;2022-08-11T06:14:32;102328.84;;;19.38;65.16
72110;BME280;59983;52.010;5.420;2022-08-11T06:17:02;102324.25;;;19.46;64.74
72110;BME280;59983;52.010;5.420;2022-08-11T06:19:39;102319.28;;;19.55;64.60
72110;BME280;59983;52.010;5.420;2022-08-11T06:22:09;102315.03;;;19.58;64.63
72110;BME280;59983;52.010;5.420;2022-08-11T06:24:40;102325.41;;;19.68;64.47
72110;BME280;59983;52.010;5.420;2022-08-11T06:27:07;102322.06;;;19.82;64.03
72110;BME280;59983;52.010;5.420;2022-08-11T06:29:49;102316.75;;;19.96;63.51
72110;BME280;59983;52.010;5.420;2022-08-11T06:32:31;102317.34;;;20.12;62.95
72110;BME280;59983;52.010;5.420;2022-08-11T06:37:39;102315.25;;;20.32;62.29
72110;BME280;59983;52.010;5.420;2022-08-11T06:40:22;102323.31;;;20.48;62.04
72110;BME280;59983;52.010;5.420;2022-08-11T06:42:59;102323.75;;;20.50;62.25
72110;BME280;59983;52.010;5.420;2022-08-11T06:48:05;102324.06;;;20.78;61.27
72110;BME280;59983;52.010;5.420;2022-08-11T06:50:40;102323.75;;;20.87;61.16
72110;BME280;59983;52.010;5.420;2022-08-11T06:53:31;102323.06;;;21.01;60.64
72110;BME280;59983;52.010;5.420;2022-08-11T06:56:00;102323.94;;;21.08;60.72
72110;BME280;59983;52.010;5.420;2022-08-11T06:58:47;102320.91;;;21.20;60.77
72110;BME280;59983;52.010;5.420;2022-08-11T07:01:40;102319.03;;;21.32;60.56
72110;BME280;59983;52.010;5.420;2022-08-11T07:04:27;102325.03;;;21.41;60.07
72110;BME280;59983;52.010;5.420;2022-08-11T07:13:28;102328.88;;;21.88;58.04
72110;BME280;59983;52.010;5.420;2022-08-11T07:16:21;102323.44;;;22.05;58.21
72110;BME280;59983;52.010;5.420;2022-08-11T07:18:59;102319.56;;;22.17;56.03
72110;BME280;59983;52.010;5.420;2022-08-11T07:21:46;102320.81;;;22.30;54.25
72110;BME280;59983;52.010;5.420;2022-08-11T07:24:46;102315.34;;;22.45;53.32
72110;BME280;59983;52.010;5.420;2022-08-11T07:27:43;102324.47;;;22.63;52.96
72110;BME280;59983;52.010;5.420;2022-08-11T07:30:31;102322.91;;;22.80;52.11
72110;BME280;59983;52.010;5.420;2022-08-11T07:33:00;102315.03;;;22.93;50.98
72110;BME280;59983;52.010;5.420;2022-08-11T07:35:47;102317.41;;;23.05;50.55
72110;BME280;59983;52.010;5.420;2022-08-11T07:38:19;102325.34;;;23.21;49.24
72110;BME280;59983;52.010;5.420;2022-08-11T07:40:51;102316.63;;;23.36;48.83
72110;BME280;59983;52.010;5.420;2022-08-11T07:43:17;102317.00;;;23.49;48.97
72110;BME280;59983;52.010;5.420;2022-08-11T07:45:45;102314.63;;;23.65;47.95
72110;BME280;59983;52.010;5.420;2022-08-11T07:48:31;102307.84;;;23.84;47.66
72110;BME280;59983;52.010;5.420;2022-08-11T07:51:19;102308.97;;;24.01;46.30
72110;BME280;59983;52.010;5.420;2022-08-11T07:54:05;102307.34;;;24.14;47.30
72110;BME280;59983;52.010;5.420;2022-08-11T07:56:44;102308.47;;;24.35;45.89
72110;BME280;59983;52.010;5.420;2022-08-11T07:59:31;102305.59;;;24.52;45.88
72110;BME280;59983;52.010;5.420;2022-08-11T08:02:30;102307.09;;;24.68;45.90
72110;BME280;59983;52.010;5.420;2022-08-11T08:05:16;102302.59;;;24.84;44.37
72110;BME280;59983;52.010;5.420;2022-08-11T08:08:02;102306.03;;;24.99;44.61
72110;BME280;59983;52.010;5.420;2022-08-11T08:10:48;102303.97;;;25.14;44.55
72110;BME280;59983;52.010;5.420;2022-08-11T08:13:34;102302.66;;;25.29;43.74
72110;BME280;59983;52.010;5.420;2022-08-11T08:16:19;102305.59;;;25.53;43.38
72110;BME280;59983;52.010;5.420;2022-08-11T08:19:05;102300.63;;;25.75;42.35
72110;BME280;59983;52.010;5.420;2022-08-11T08:21:31;102306.47;;;25.84;42.61
72110;BME280;59983;52.010;5.420;2022-08-11T08:23:59;102313.91;;;25.94;42.06
72110;BME280;59983;52.010;5.420;2022-08-11T08:26:26;102300.97;;;26.11;42.33
72110;BME280;59983;52.010;5.420;2022-08-11T08:29:18;102300.81;;;26.25;41.44
72110;BME280;59983;52.010;5.420;2022-08-11T08:32:04;102300.19;;;26.41;40.30
72110;BME280;59983;52.010;5.420;2022-08-11T08:34:34;102306.44;;;26.52;39.48
72110;BME280;59983;52.010;5.420;2022-08-11T08:37:03;102304.31;;;26.60;38.02
72110;BME280;59983;52.010;5.420;2022-08-11T08:39:51;102292.13;;;26.77;37.70
72110;BME280;59983;52.010;5.420;2022-08-11T08:42:23;102296.66;;;26.91;38.71
72110;BME280;59983;52.010;5.420;2022-08-11T08:44:58;102295.34;;;26.99;37.86
72110;BME280;59983;52.010;5.420;2022-08-11T08:47:28;102297.06;;;27.16;37.14
72110;BME280;59983;52.010;5.420;2022-08-11T08:50:13;102295.19;;;27.33;37.32
72110;BME280;59983;52.010;5.420;2022-08-11T08:52:51;102286.19;;;27.45;37.32
72110;BME280;59983;52.010;5.420;2022-08-11T08:55:20;102286.63;;;27.63;37.25
72110;BME280;59983;52.010;5.420;2022-08-11T08:57:49;102294.88;;;27.71;36.45
72110;BME280;59983;52.010;5.420;2022-08-11T09:00:17;102288.97;;;27.65;35.22
72110;BME280;59983;52.010;5.420;2022-08-11T09:02:49;102293.53;;;27.79;36.19
72110;BME280;59983;52.010;5.420;2022-08-11T09:05:18;102289.69;;;27.92;37.50
72110;BME280;59983;52.010;5.420;2022-08-11T09:07:46;102282.94;;;28.10;34.83
72110;BME280;59983;52.010;5.420;2022-08-11T09:10:18;102286.63;;;28.23;35.11
72110;BME280;59983;52.010;5.420;2022-08-11T09:12:46;102286.34;;;28.37;34.86
72110;BME280;59983;52.010;5.420;2022-08-11T09:15:14;102285.16;;;28.55;33.43
72110;BME280;59983;52.010;5.420;2022-08-11T09:17:47;102283.56;;;28.70;33.75
72110;BME280;59983;52.010;5.420;2022-08-11T09:22:48;102282.72;;;28.73;32.20
72110;BME280;59983;52.010;5.420;2022-08-11T09:25:58;102278.59;;;28.61;31.95
72110;BME280;59983;52.010;5.420;2022-08-11T09:28:45;102281.47;;;28.74;30.83
72110;BME280;59983;52.010;5.420;2022-08-11T09:31:13;102270.22;;;28.77;32.03
72110;BME280;59983;52.010;5.420;2022-08-11T09:33:41;102262.13;;;28.99;32.11
72110;BME280;59983;52.010;5.420;2022-08-11T09:36:11;102261.13;;;29.06;31.83
72110;BME280;59983;52.010;5.420;2022-08-11T09:39:04;102259.53;;;29.21;32.43
72110;BME280;59983;52.010;5.420;2022-08-11T09:41:50;102258.72;;;29.37;32.73
72110;BME280;59983;52.010;5.420;2022-08-11T09:44:29;102260.78;;;29.49;31.75
72110;BME280;59983;52.010;5.420;2022-08-11T09:47:21;102256.66;;;29.25;31.03
72110;BME280;59983;52.010;5.420;2022-08-11T09:49:49;102251.84;;;29.25;32.15
72110;BME280;59983;52.010;5.420;2022-08-11T09:52:18;102257.16;;;29.36;30.91
72110;BME280;59983;52.010;5.420;2022-08-11T09:54:46;102254.34;;;29.52;31.01
72110;BME280;59983;52.010;5.420;2022-08-11T09:57:17;102257.63;;;29.76;30.29
72110;BME280;59983;52.010;5.420;2022-08-11T10:00:07;102246.88;;;29.62;29.52
72110;BME280;59983;52.010;5.420;2022-08-11T10:02:42;102250.38;;;29.50;29.85
72110;BME280;59983;52.010;5.420;2022-08-11T10:05:10;102245.28;;;29.61;29.85
72110;BME280;59983;52.010;5.420;2022-08-11T10:07:58;102264.81;;;29.77;28.56
72110;BME280;59983;52.010;5.420;2022-08-11T10:10:26;102252.66;;;29.55;28.11
72110;BME280;59983;52.010;5.420;2022-08-11T10:13:00;102253.38;;;29.72;29.49
72110;BME280;59983;52.010;5.420;2022-08-11T10:15:30;102245.34;;;29.86;29.42
72110;BME280;59983;52.010;5.420;2022-08-11T10:18:06;102247.53;;;30.08;28.46
72110;BME280;59983;52.010;5.420;2022-08-11T10:21:40;102249.28;;;30.02;27.31
72110;BME280;59983;52.010;5.420;2022-08-11T10:23:46;102241.91;;;29.95;28.60
72110;BME280;59983;52.010;5.420;2022-08-11T10:26:32;102233.72;;;30.01;28.57
72110;BME280;59983;52.010;5.420;2022-08-11T10:29:24;102232.81;;;29.91;27.43
72110;BME280;59983;52.010;5.420;2022-08-11T10:32:20;102231.50;;;29.96;27.93
72110;BME280;59983;52.010;5.420;2022-08-11T10:35:25;102232.34;;;29.93;27.80
72110;BME280;59983;52.010;5.420;2022-08-11T10:37:53;102231.91;;;29.94;27.19
72110;BME280;59983;52.010;5.420;2022-08-11T10:40:36;102232.16;;;30.00;27.09
72110;BME280;59983;52.010;5.420;2022-08-11T10:43:04;102239.44;;;29.97;26.17
72110;BME280;59983;52.010;5.420;2022-08-11T10:45:34;102223.88;;;29.96;25.85
72110;BME280;59983;52.010;5.420;2022-08-11T10:48:21;102231.81;;;29.98;26.80
72110;BME280;59983;52.010;5.420;2022-08-11T10:50:50;102220.38;;;29.92;26.85
72110;BME280;59983;52.010;5.420;2022-08-11T10:53:38;102230.91;;;29.88;27.66
72110;BME280;59983;52.010;5.420;2022-08-11T10:56:27;102215.44;;;29.83;28.19
72110;BME280;59983;52.010;5.420;2022-08-11T10:59:13;102215.66;;;29.64;27.16
72110;BME280;59983;52.010;5.420;2022-08-11T11:01:42;102212.06;;;29.63;27.65
72110;BME280;59983;52.010;5.420;2022-08-11T11:04:17;102216.31;;;29.68;27.79
72110;BME280;59983;52.010;5.420;2022-08-11T11:07:04;102209.41;;;29.72;27.57
72110;BME280;59983;52.010;5.420;2022-08-11T11:09:49;102204.13;;;29.74;27.16
72110;BME280;59983;52.010;5.420;2022-08-11T11:12:40;102205.69;;;29.75;27.67
72110;BME280;59983;52.010;5.420;2022-08-11T11:15:28;102210.31;;;29.69;26.25
72110;BME280;59983;52.010;5.420;2022-08-11T11:18:24;102206.03;;;29.65;26.44
72110;BME280;59983;52.010;5.420;2022-08-11T11:26:30;102204.00;;;29.65;28.12
72110;BME280;59983;52.010;5.420;2022-08-11T11:37:25;102195.75;;;29.74;28.04
72110;BME280;59983;52.010;5.420;2022-08-11T11:39:53;102192.16;;;29.74;29.44
72110;BME280;59983;52.010;5.420;2022-08-11T11:42:20;102190.94;;;29.75;28.21
72110;BME280;59983;52.010;5.420;2022-08-11T11:44:47;102192.84;;;29.78;28.52
72110;BME280;59983;52.010;5.420;2022-08-11T11:47:15;102201.13;;;29.81;27.73
72110;BME280;59983;52.010;5.420;2022-08-11T11:49:47;102197.31;;;29.75;27.67
72110;BME280;59983;52.010;5.420;2022-08-11T11:52:17;102195.88;;;29.83;28.39
72110;BME280;59983;52.010;5.420;2022-08-11T11:54:46;102192.53;;;29.88;29.21
72110;BME280;59983;52.010;5.420;2022-08-11T11:57:17;102187.13;;;29.94;29.05
72110;BME280;59983;52.010;5.420;2022-08-11T12:00:09;102188.03;;;30.04;28.07
72110;BME280;59983;52.010;5.420;2022-08-11T12:03:02;102183.03;;;30.11;28.85
72110;BME280;59983;52.010;5.420;2022-08-11T12:05:32;102169.47;;;30.10;28.39
72110;BME280;59983;52.010;5.420;2022-08-11T12:08:00;102170.81;;;30.18;30.04
72110;BME280;59983;52.010;5.420;2022-08-11T12:10:49;102172.81;;;30.30;28.84
72110;BME280;59983;52.010;5.420;2022-08-11T12:13:38;102162.47;;;30.53;29.71
72110;BME280;59983;52.010;5.420;2022-08-11T12:16:08;102156.81;;;30.78;28.34
72110;BME280;59983;52.010;5.420;2022-08-11T12:18:58;102157.03;;;31.06;27.64
72110;BME280;59983;52.010;5.420;2022-08-11T12:21:28;102167.84;;;31.16;27.44
72110;BME280;59983;52.010;5.420;2022-08-11T12:23:57;102165.81;;;31.29;26.76
72110;BME280;59983;52.010;5.420;2022-08-11T12:26:44;102150.38;;;31.56;27.91
72110;BME280;59983;52.010;5.420;2022-08-11T12:29:34;102150.84;;;31.54;27.43
72110;BME280;59983;52.010;5.420;2022-08-11T12:32:07;102150.66;;;31.80;26.05
72110;BME280;59983;52.010;5.420;2022-08-11T12:34:34;102148.72;;;31.99;26.25
72110;BME280;59983;52.010;5.420;2022-08-11T12:37:02;102138.16;;;32.12;26.43
72110;BME280;59983;52.010;5.420;2022-08-11T12:39:37;102145.63;;;32.15;25.55
72110;BME280;59983;52.010;5.420;2022-08-11T12:42:44;102141.94;;;32.27;25.85
72110;BME280;59983;52.010;5.420;2022-08-11T12:45:47;102129.88;;;32.08;26.33
72110;BME280;59983;52.010;5.420;2022-08-11T12:48:18;102127.22;;;32.14;25.89
72110;BME280;59983;52.010;5.420;2022-08-11T12:51:24;102128.19;;;32.20;24.90
72110;BME280;59983;52.010;5.420;2022-08-11T12:57:19;102108.84;;;32.22;23.82
72110;BME280;59983;52.010;5.420;2022-08-11T13:00:05;102117.88;;;32.08;24.99
72110;BME280;59983;52.010;5.420;2022-08-11T13:02:51;102104.63;;;32.08;25.37
72110;BME280;59983;52.010;5.420;2022-08-11T13:05:38;102109.84;;;31.88;25.07
72110;BME280;59983;52.010;5.420;2022-08-11T13:08:11;102108.84;;;31.73;26.17
72110;BME280;59983;52.010;5.420;2022-08-11T13:10:41;102113.19;;;31.65;26.25
72110;BME280;59983;52.010;5.420;2022-08-11T13:13:27;102102.53;;;31.60;26.15
72110;BME280;59983;52.010;5.420;2022-08-11T13:16:15;102101.41;;;31.48;25.69
72110;BME280;59983;52.010;5.420;2022-08-11T13:18:42;102102.66;;;31.47;26.27
72110;BME280;59983;52.010;5.420;2022-08-11T13:21:10;102103.25;;;31.42;25.61
72110;BME280;59983;52.010;5.420;2022-08-11T13:23:47;102103.03;;;31.36;25.24
72110;BME280;59983;52.010;5.420;2022-08-11T13:26:28;102101.38;;;31.39;24.74
72110;BME280;59983;52.010;5.420;2022-08-11T13:29:22;102091.72;;;31.40;24.58
72110;BME280;59983;52.010;5.420;2022-08-11T13:31:51;102088.34;;;31.23;26.08
72110;BME280;59983;52.010;5.420;2022-08-11T13:34:20;102081.25;;;31.18;25.71
72110;BME280;59983;52.010;5.420;2022-08-11T13:36:50;102073.00;;;31.15;28.08
72110;BME280;59983;52.010;5.420;2022-08-11T13:39:19;102083.06;;;31.25;28.60
72110;BME280;59983;52.010;5.420;2022-08-11T13:41:49;102076.28;;;31.44;28.93
72110;BME280;59983;52.010;5.420;2022-08-11T13:44:17;102067.94;;;31.63;26.61
72110;BME280;59983;52.010;5.420;2022-08-11T13:46:52;102068.53;;;31.89;26.27
72110;BME280;59983;52.010;5.420;2022-08-11T13:49:20;102068.09;;;31.99;25.98
72110;BME280;59983;52.010;5.420;2022-08-11T13:51:47;102068.09;;;31.99;25.18
72110;BME280;59983;52.010;5.420;2022-08-11T13:54:20;102059.81;;;31.96;25.21
72110;BME280;59983;52.010;5.420;2022-08-11T13:56:50;102062.78;;;32.01;24.85
72110;BME280;59983;52.010;5.420;2022-08-11T13:59:19;102059.03;;;31.95;27.38
72110;BME280;59983;52.010;5.420;2022-08-11T14:01:56;102063.25;;;31.91;25.45
72110;BME280;59983;52.010;5.420;2022-08-11T14:04:55;102062.78;;;31.92;27.22
72110;BME280;59983;52.010;5.420;2022-08-11T14:07:26;102057.75;;;31.87;26.27
72110;BME280;59983;52.010;5.420;2022-08-11T14:10:00;102057.59;;;31.81;25.64
72110;BME280;59983;52.010;5.420;2022-08-11T14:12:29;102057.28;;;31.79;26.57
72110;BME280;59983;52.010;5.420;2022-08-11T14:15:22;102047.78;;;31.86;26.47
72110;BME280;59983;52.010;5.420;2022-08-11T14:17:56;102037.97;;;31.91;25.87
72110;BME280;59983;52.010;5.420;2022-08-11T14:20:30;102044.38;;;32.00;25.78
72110;BME280;59983;52.010;5.420;2022-08-11T14:23:21;102046.09;;;31.98;26.61
72110;BME280;59983;52.010;5.420;2022-08-11T14:25:51;102036.72;;;31.92;25.78
72110;BME280;59983;52.010;5.420;2022-08-11T14:28:37;102029.22;;;31.79;25.92
72110;BME280;59983;52.010;5.420;2022-08-11T14:31:11;102039.00;;;31.75;26.54
72110;BME280;59983;52.010;5.420;2022-08-11T14:33:40;102037.41;;;31.65;26.56
72110;BME280;59983;52.010;5.420;2022-08-11T14:36:54;102029.28;;;31.57;26.61
72110;BME280;59983;52.010;5.420;2022-08-11T14:39:27;102028.59;;;31.44;26.67
72110;BME280;59983;52.010;5.420;2022-08-11T14:41:58;102016.56;;;31.35;24.36
72110;BME280;59983;52.010;5.420;2022-08-11T14:44:46;102016.25;;;31.33;24.34
72110;BME280;59983;52.010;5.420;2022-08-11T14:47:36;102015.78;;;31.34;24.16
72110;BME280;59983;52.010;5.420;2022-08-11T14:50:05;102020.47;;;31.28;24.11
72110;BME280;59983;52.010;5.420;2022-08-11T14:52:41;102012.66;;;31.23;23.81
72110;BME280;59983;52.010;5.420;2022-08-11T14:55:09;102010.75;;;31.20;23.90
72110;BME280;59983;52.010;5.420;2022-08-11T14:57:55;102011.63;;;31.17;24.49
72110;BME280;59983;52.010;5.420;2022-08-11T15:00:23;102009.00;;;31.13;23.77
72110;BME280;59983;52.010;5.420;2022-08-11T15:02:50;102007.28;;;31.16;23.89
72110;BME280;59983;52.010;5.420;2022-08-11T15:05:49;102005.88;;;31.11;24.51
72110;BME280;59983;52.010;5.420;2022-08-11T15:08:25;102003.06;;;31.11;26.40
72110;BME280;59983;52.010;5.420;2022-08-11T15:11:12;102008.94;;;31.04;25.76
72110;BME280;59983;52.010;5.420;2022-08-11T15:14:00;102000.50;;;30.95;24.68
72110;BME280;59983;52.010;5.420;2022-08-11T15:16:27;101993.78;;;30.92;24.30
72110;BME280;59983;52.010;5.420;2022-08-11T15:19:13;101989.22;;;30.86;23.64
72110;BME280;59983;52.010;5.420;2022-08-11T15:21:41;101990.78;;;30.87;23.78
72110;BME280;59983;52.010;5.420;2022-08-11T15:24:26;101984.25;;;30.90;22.88
72110;BME280;59983;52.010;5.420;2022-08-11T15:26:57;101983.00;;;30.91;23.93
72110;BME280;59983;52.010;5.420;2022-08-11T15:29:45;101988.19;;;30.92;25.35
72110;BME280;59983;52.010;5.420;2022-08-11T15:32:32;101985.38;;;30.92;25.10
72110;BME280;59983;52.010;5.420;2022-08-11T15:35:18;101985.97;;;30.87;22.71
72110;BME280;59983;52.010;5.420;2022-08-11T15:38:05;101978.66;;;30.90;22.46
72110;BME280;59983;52.010;5.420;2022-08-11T15:40:38;101979.31;;;30.94;22.39
72110;BME280;59983;52.010;5.420;2022-08-11T15:43:28;101977.41;;;30.91;23.63
72110;BME280;59983;52.010;5.420;2022-08-11T15:46:44;101980.03;;;30.85;23.62
72110;BME280;59983;52.010;5.420;2022-08-11T15:49:13;101969.09;;;30.78;23.38
72110;BME280;59983;52.010;5.420;2022-08-11T15:52:00;101961.78;;;30.81;23.33
72110;BME280;59983;52.010;5.420;2022-08-11T15:54:29;101962.00;;;30.86;23.38
72110;BME280;59983;52.010;5.420;2022-08-11T15:56:58;101966.50;;;30.84;23.40
72110;BME280;59983;52.010;5.420;2022-08-11T15:59:29;101960.38;;;30.76;22.91
72110;BME280;59983;52.010;5.420;2022-08-11T16:02:19;101960.19;;;30.70;22.90
72110;BME280;59983;52.010;5.420;2022-08-11T16:05:09;101950.53;;;30.71;23.72
72110;BME280;59983;52.010;5.420;2022-08-11T16:07:39;101948.78;;;30.65;23.46
72110;BME280;59983;52.010;5.420;2022-08-11T16:10:12;101955.16;;;30.65;23.29
72110;BME280;59983;52.010;5.420;2022-08-11T16:12:48;101953.16;;;30.66;23.10
72110;BME280;59983;52.010;5.420;2022-08-11T16:15:41;101951.59;;;30.65;23.40
72110;BME280;59983;52.010;5.420;2022-08-11T16:18:33;101949.34;;;30.60;23.78
72110;BME280;59983;52.010;5.420;2022-08-11T16:21:10;101935.81;;;30.58;23.08
72110;BME280;59983;52.010;5.420;2022-08-11T16:23:58;101952.94;;;30.60;23.57
72110;BME280;59983;52.010;5.420;2022-08-11T16:26:26;101946.56;;;30.60;23.47
72110;BME280;59983;52.010;5.420;2022-08-11T16:29:15;101935.81;;;30.58;23.09
72110;BME280;59983;52.010;5.420;2022-08-11T16:31:42;101934.88;;;30.61;22.66
72110;BME280;59983;52.010;5.420;2022-08-11T16:34:29;101942.19;;;30.59;22.88
72110;BME280;59983;52.010;5.420;2022-08-11T16:37:16;101941.75;;;30.60;23.27
72110;BME280;59983;52.010;5.420;2022-08-11T16:40:03;101938.75;;;30.77;22.91
72110;BME280;59983;52.010;5.420;2022-08-11T16:42:31;101942.00;;;31.46;22.83
72110;BME280;59983;52.010;5.420;2022-08-11T16:45:37;101944.03;;;31.46;22.87
72110;BME280;59983;52.010;5.420;2022-08-11T16:48:26;101938.72;;;31.39;22.41
72110;BME280;59983;52.010;5.420;2022-08-11T16:51:06;101927.88;;;31.19;23.33
72110;BME280;59983;52.010;5.420;2022-08-11T16:53:33;101925.91;;;30.97;23.57
72110;BME280;59983;52.010;5.420;2022-08-11T16:56:45;101928.63;;;30.79;23.21